• Join FlightAware (Why Join?)
  • Login
  • US Flag 
11:28PM EST


 

Airport Tracker/Info


-or-


 

Live Flight TrackerFlight Track Log ✈ SWA1798 ✈ 13-Jul-2013 ✈ KLAX - KSFO

Flight Track Log - Related Links

Times and Time Zones

All times are in EDT time to prevent confusion due to time zone crossing. See the SWA1798 flight status page for this flight to view local times or setup timezone preferences in your user account.

Time Position Orientation Groundspeed Altitude Reporting Facility
EDT Latitude Longitude Course Direction KTS MPH feet Rate Location/Type
11:45PM 33.9500 -118.4500 259° West 165 190 2,100  Level Southern California TRACON
11:46PM 33.9361 -118.5389 259° West 231 266 6,400 3,840 Climbing Los Angeles Center
11:47PM 33.9264 -118.6367 263° West 290 334 10,600 3,180 Climbing Los Angeles Center
11:48PM 33.9175 -118.7436 264° West 331 381 13,000 1,140 Climbing Los Angeles Center
11:49PM 33.9108 -118.8383 265° West 344 396 13,000 1,440 Level Los Angeles Center
11:50PM 33.9519 -118.9608 292° West 347 399 16,000 3,240 Climbing Los Angeles Center
11:51PM 34.0178 -119.0564 310° West 370 426 19,700 3,360 Climbing Los Angeles Center
11:52PM 34.0858 -119.1542 310° West 381 438 22,900 2,940 Climbing Los Angeles Center
11:53PM 34.1564 -119.2589 309° West 399 459 25,800 2,580 Climbing Los Angeles Center
11:54PM 34.2317 -119.3669 310° West 417 480 28,200 2,160 Climbing Los Angeles Center
11:55PM 34.3089 -119.4819 309° West 437 503 30,200 2,340 Climbing Los Angeles Center
11:56PM 34.3889 -119.5981 310° West 449 517 33,100 2,820 Climbing Los Angeles Center
11:57PM 34.4808 -119.7317 310° West 432 497 36,000 1,380 Climbing Los Angeles Center
11:58PM 34.5617 -119.8344 314° West 424 488 36,000  Level Los Angeles Center
11:59PM 34.6467 -119.9228 319° Northwest 443 510 36,000  Level Los Angeles Center
12:00AM 34.7400 -120.0231 319° Northwest 448 516 36,000  Level Los Angeles Center
12:01AM 34.8314 -120.1228 318° Northwest 451 519 36,000  Level Los Angeles Center
12:02AM 34.9433 -120.2444 318° Northwest 455 524 36,000  Level Los Angeles Center
12:03AM 35.0364 -120.3478 318° Northwest 457 526 36,000  Level Los Angeles Center
12:04AM 35.1322 -120.4531 318° Northwest 467 537 36,000  Level Los Angeles Center
12:05AM 35.2261 -120.5589 317° Northwest 465 535 36,000  Level Los Angeles Center
12:06AM 35.3192 -120.6642 317° Northwest 460 529 36,000  Level Los Angeles Center
12:07AM 35.4125 -120.7686 318° Northwest 457 526 36,000  Level Los Angeles Center
12:08AM 35.5286 -120.8889 320° Northwest 457 526 36,000  Level Los Angeles Center
12:09AM 35.6344 -120.9775 326° Northwest 460 529 36,000  Level Los Angeles Center
12:10AM 35.6894 -121.0264 324° Northwest 459 528 36,000  Level Oakland Center
12:11AM 35.7925 -121.1192 324° Northwest 459 528 36,000  Level Oakland Center
12:12AM 35.8994 -121.2092 326° Northwest 463 533 36,000  Level Oakland Center
12:13AM 36.0008 -121.3039 323° Northwest 456 525 36,000  Level Oakland Center
12:14AM 36.1078 -121.3939 326° Northwest 462 532 36,000 -1,140 Level Oakland Center
12:15AM 36.2119 -121.4853 325° Northwest 460 529 33,700 -2,880 Descending Oakland Center
12:16AM 36.3144 -121.5803 323° Northwest 460 529 30,200 -3,180 Descending Oakland Center
12:17AM 36.4206 -121.6717 325° Northwest 458 527 27,300 -3,000 Descending Oakland Center
12:18AM 36.5167 -121.7667 322° Northwest 440 506 24,700 -2,760 Descending Northern Cal TRACON
12:19AM 36.6167 -121.8500 326° Northwest 425 489 22,300 -2,220 Descending Northern Cal TRACON
12:20AM 36.7000 -121.9333 321° Northwest 395 455 20,300 -2,280 Descending Northern Cal TRACON
12:21AM 36.8000 -121.9833 338° Northwest 384 442 17,800 -2,400 Descending Northern Cal TRACON
12:22AM 36.9000 -122.0000 352° North 370 426 15,600 -2,340 Descending Northern Cal TRACON
12:23AM 37.0000 -122.0333 345° North 357 411 13,200 -2,160 Descending Northern Cal TRACON
12:24AM 37.0833 -122.0500 351° North 339 390 11,500 -1,560 Descending Northern Cal TRACON
12:25AM 37.1667 -122.0833 342° North 305 351 10,300 -1,440 Descending Northern Cal TRACON
12:26AM 37.2500 -122.1000 351° North 297 342 8,700 -1,620 Descending Northern Cal TRACON
12:27AM 37.3333 -122.1167 351° North 288 331 6,900 -1,440 Descending Northern Cal TRACON
12:28AM 37.4167 -122.1333 351° North 280 322 5,700 -960 Descending Northern Cal TRACON
12:29AM 37.4833 -122.1167 11° North 245 282 5,000 -840 Descending Northern Cal TRACON
12:30AM 37.5167 -122.1667 310° West 201 231 4,100 -1,140 Descending Northern Cal TRACON
12:31AM 37.5500 -122.2167 310° West 186 214 2,900 -1,200 Descending Northern Cal TRACON
12:32AM 37.5667 -122.2667 293° West 149 171 1,900 -900 Descending Northern Cal TRACON
12:33AM 37.5833 -122.3000 302° West 136 157 1,100 -780 Descending Northern Cal TRACON
12:34AM 37.6000 -122.3500 293° West 127 146 300 -780 Descending Northern Cal TRACON
12:36AM 37.6167 -122.3667 322° Northwest  Level FlightAware Approximate
12:43AM 37.6191 -122.3752 322° Northwest  Level Estimated